Aurora, Ohio
Current Conditions -  °F | °C
As of 1:57 PM on Thursday 23 Oct 2014 (Local Time) from KPOV Reporting Station
Overcast Overcast  
Wind Chill: 14°   Ceiling: 2900
Heat Index: 14°   Visibility: 10mi
Dew Point:   Wind: 13mph
Humidity: 58%   Direction: 320°NW
Pressure: 30.14"   Gusts: 16mph
Location:  41.31°N, 81.34°W
Report Text: KPOV 231757Z AUTO 32011G14KT 10SM OVC029 14/06 A3014 RMK AO2 T01410059
Loading
Personal Weather Stations






























Interactive Weather Map
Tropical Storm Tracking
New forecast layout! Learn more

10-Day Weather Forecast

Advertisements
Track Severe Weather on mobile